Weather at Scottsdale Airport

Public forecast

Using degrees Fahrenheit for public forecast. Weather courtesy of forecast.io.

Current aviation weather report (METAR) for Scottsdale Airport

Retrieved 2021/03/05 22:53 UTC (2 hours ago):

KSDL 052253Z VRB03KT 10SM CLR 27/M02 A3001 RMK AO2 SLP146 T02721017

Aviation forecast (TAF) for Scottsdale Airport

Retrieved 2021-03-06 00:45 UTC (0 seconds ago):

TAF KSDL 060043Z 0600/0624 VRB03KT P6SM FEW250 FM061000 08007KT P6SM FEW250 WS020/11035KT FM061500 08008G25KT P6SM FEW250 FM061900 11011G19KT P6SM SKC FM062300 14006KT P6SM FEW250